createdAt,value
2019-03-15T00:01:43.560Z,13.55
2019-03-15T00:04:12.512Z,18.67
2019-03-15T00:06:41.414Z,20.45
2019-03-15T00:09:10.399Z,16.00
2019-03-15T00:11:39.288Z,14.25
2019-03-15T00:14:08.158Z,16.75
2019-03-15T00:16:37.036Z,13.08
2019-03-15T00:19:05.891Z,11.03
2019-03-15T00:21:34.768Z,17.40
2019-03-15T00:24:03.611Z,9.38
2019-03-15T00:26:32.553Z,12.47
2019-03-15T00:29:01.419Z,13.05
2019-03-15T00:31:30.272Z,8.65
2019-03-15T00:33:59.207Z,10.58
2019-03-15T00:36:28.108Z,16.40
2019-03-15T00:38:57.040Z,16.67
2019-03-15T00:41:25.921Z,15.75
2019-03-15T00:43:54.977Z,14.15
2019-03-15T00:46:24.123Z,13.28
2019-03-15T00:48:53.068Z,17.87
2019-03-15T00:51:21.949Z,13.45
2019-03-15T00:53:53.936Z,16.48
2019-03-15T00:56:21.473Z,14.03
2019-03-15T00:58:50.336Z,12.47
2019-03-15T01:01:19.364Z,19.02
2019-03-15T01:03:50.983Z,15.40
2019-03-15T01:06:19.851Z,13.78
2019-03-15T01:08:48.704Z,12.23
2019-03-15T01:11:17.595Z,15.78
2019-03-15T01:13:46.452Z,10.23
2019-03-15T01:16:15.397Z,11.12
2019-03-15T01:18:44.624Z,9.68
2019-03-15T01:21:13.802Z,19.87
2019-03-15T01:23:42.668Z,13.48
2019-03-15T01:26:11.542Z,16.87
2019-03-15T01:28:40.741Z,21.23
2019-03-15T01:31:09.643Z,19.90
2019-03-15T01:33:38.528Z,17.73
2019-03-15T01:36:07.464Z,20.68
2019-03-15T01:38:36.469Z,30.15
2019-03-15T01:41:05.415Z,20.77
2019-03-15T01:43:34.283Z,14.83
2019-03-15T01:46:03.166Z,19.15
2019-03-15T01:48:32.099Z,12.80
2019-03-15T01:51:00.966Z,15.70
2019-03-15T01:53:29.953Z,16.95
2019-03-15T01:56:00.538Z,18.30
2019-03-15T01:58:29.422Z,16.40
2019-03-15T02:00:58.288Z,16.65
2019-03-15T02:03:27.168Z,18.77
2019-03-15T02:05:56.027Z,14.03
2019-03-15T02:08:24.914Z,16.85
2019-03-15T02:10:53.781Z,13.53
2019-03-15T02:13:22.660Z,12.55
2019-03-15T02:15:51.516Z,13.93
2019-03-15T02:18:20.383Z,11.68
2019-03-15T02:20:49.259Z,10.40
2019-03-15T02:23:18.198Z,9.78
2019-03-15T02:25:47.107Z,10.78
2019-03-15T02:28:16.071Z,14.33
2019-03-15T02:30:44.933Z,9.58
2019-03-15T02:33:13.890Z,13.98
2019-03-15T02:35:42.757Z,9.70
2019-03-15T02:38:11.694Z,10.55
2019-03-15T02:40:40.954Z,8.90
2019-03-15T02:43:10.067Z,6.12
2019-03-15T02:45:38.989Z,8.05
2019-03-15T02:48:07.910Z,5.72
2019-03-15T02:50:36.810Z,5.15
2019-03-15T02:53:05.678Z,9.05
2019-03-15T02:55:34.523Z,9.90
2019-03-15T02:58:03.388Z,11.80
2019-03-15T03:00:32.252Z,13.50
2019-03-15T03:03:01.121Z,13.25
2019-03-15T03:05:29.993Z,12.80
2019-03-15T03:07:58.879Z,13.25
2019-03-15T03:10:29.164Z,18.12
2019-03-15T03:12:58.286Z,13.32
2019-03-15T03:15:27.160Z,14.75
2019-03-15T03:17:56.011Z,8.63
2019-03-15T03:20:24.859Z,10.05
2019-03-15T03:22:53.738Z,12.88
2019-03-15T03:25:22.597Z,15.00
2019-03-15T03:27:51.474Z,9.88
2019-03-15T03:30:20.414Z,13.75
2019-03-15T03:32:49.313Z,14.25
2019-03-15T03:35:18.252Z,17.60
2019-03-15T03:37:47.480Z,14.45
2019-03-15T03:40:19.923Z,16.70
2019-03-15T03:42:47.257Z,15.28
2019-03-15T03:45:16.119Z,13.45
2019-03-15T03:47:44.986Z,20.85
2019-03-15T03:50:13.864Z,15.30
2019-03-15T03:52:42.733Z,13.50
2019-03-15T03:55:11.601Z,12.58
2019-03-15T03:57:40.537Z,18.62
2019-03-15T04:00:12.618Z,14.63
2019-03-15T04:02:44.292Z,16.52
2019-03-15T04:05:13.168Z,17.87
2019-03-15T04:07:42.111Z,14.43
2019-03-15T04:10:11.717Z,18.50
2019-03-15T04:12:40.586Z,21.05
2019-03-15T04:15:10.869Z,19.98
2019-03-15T04:17:39.803Z,12.25
2019-03-15T04:20:12.327Z,14.75
2019-03-15T04:22:41.183Z,9.95
2019-03-15T04:25:10.602Z,10.20
2019-03-15T04:27:39.520Z,12.25
2019-03-15T04:30:10.988Z,13.28
2019-03-15T04:32:39.848Z,10.50
2019-03-15T04:35:08.704Z,8.70
2019-03-15T04:37:37.558Z,12.75
2019-03-15T04:40:09.692Z,17.35
2019-03-15T04:42:38.555Z,16.57
2019-03-15T04:45:08.160Z,30.00
2019-03-15T04:47:37.046Z,23.55
2019-03-15T04:50:06.723Z,27.13
2019-03-15T04:52:35.639Z,27.70
2019-03-15T04:55:05.531Z,31.23
2019-03-15T04:57:34.444Z,26.60
2019-03-15T05:00:03.778Z,29.40
2019-03-15T05:02:32.634Z,29.50
2019-03-15T05:05:01.505Z,34.15
2019-03-15T05:07:30.420Z,34.43
2019-03-15T05:09:59.287Z,33.83
2019-03-15T05:12:28.156Z,38.33
2019-03-15T05:14:57.032Z,45.08
2019-03-15T05:17:25.891Z,42.67
2019-03-15T05:19:54.776Z,45.45
2019-03-15T05:22:23.740Z,36.08
2019-03-15T05:24:52.629Z,41.45
2019-03-15T05:27:21.499Z,36.90
2019-03-15T05:29:50.467Z,39.67
2019-03-15T05:32:19.412Z,43.25
2019-03-15T05:34:48.285Z,46.75
2019-03-15T05:37:19.149Z,49.53
2019-03-15T05:39:47.793Z,44.85
2019-03-15T05:42:16.793Z,47.35
2019-03-15T05:44:45.659Z,40.60
2019-03-15T05:47:14.537Z,47.30
2019-03-15T05:49:43.388Z,55.67
2019-03-15T05:52:12.245Z,53.02
2019-03-15T05:54:41.101Z,48.42
2019-03-15T05:57:09.976Z,42.00
2019-03-15T05:59:38.841Z,42.38
2019-03-15T06:02:07.724Z,41.98
2019-03-15T06:04:36.571Z,50.33
2019-03-15T06:07:05.442Z,53.20
2019-03-15T06:09:34.298Z,58.05
2019-03-15T06:12:03.177Z,54.70
2019-03-15T06:14:32.036Z,45.73
2019-03-15T06:17:00.904Z,55.23
2019-03-15T06:19:29.764Z,55.55
2019-03-15T06:21:58.640Z,48.45
2019-03-15T06:24:27.493Z,50.80
2019-03-15T06:26:56.370Z,59.27
2019-03-15T06:29:25.219Z,52.93
2019-03-15T06:31:54.085Z,52.85
2019-03-15T06:34:22.942Z,53.98
2019-03-15T06:36:51.800Z,47.85
2019-03-15T06:39:20.661Z,72.82
2019-03-15T06:41:49.541Z,59.73
2019-03-15T06:44:18.478Z,46.20
2019-03-15T06:46:47.348Z,46.00
2019-03-15T06:49:16.704Z,44.93
2019-03-15T06:51:45.677Z,45.33
2019-03-15T06:54:14.624Z,45.65
2019-03-15T06:56:43.488Z,41.95
2019-03-15T06:59:12.357Z,45.98
2019-03-15T07:01:41.220Z,42.53
2019-03-15T07:04:10.096Z,39.73
2019-03-15T07:06:38.948Z,33.60
2019-03-15T07:09:07.824Z,42.75
2019-03-15T07:11:36.692Z,45.20
2019-03-15T07:14:05.560Z,44.88
2019-03-15T07:16:34.415Z,37.55
2019-03-15T07:19:03.371Z,38.20
2019-03-15T07:21:32.256Z,39.23
2019-03-15T07:24:01.135Z,34.73
2019-03-15T07:26:30.056Z,34.73
2019-03-15T07:28:58.954Z,41.18
2019-03-15T07:31:27.885Z,33.48
2019-03-15T07:33:56.760Z,44.70
2019-03-15T07:36:25.850Z,48.05
2019-03-15T07:38:54.873Z,32.08
2019-03-15T07:41:25.408Z,33.92
2019-03-15T07:43:54.710Z,32.25
2019-03-15T07:46:23.636Z,38.53
2019-03-15T07:48:52.516Z,37.83
2019-03-15T07:51:21.377Z,35.20
2019-03-15T07:53:50.245Z,40.67
2019-03-15T07:56:19.114Z,44.05
2019-03-15T07:58:47.964Z,32.13
2019-03-15T08:01:16.974Z,40.58
2019-03-15T08:03:45.841Z,39.88
2019-03-15T08:06:14.712Z,46.65
2019-03-15T08:08:43.650Z,33.20
2019-03-15T08:11:12.628Z,37.65
2019-03-15T08:13:41.484Z,40.38
2019-03-15T08:16:10.365Z,46.83
2019-03-15T08:18:39.237Z,41.15
2019-03-15T08:21:08.120Z,42.53
2019-03-15T08:23:36.996Z,42.67
2019-03-15T08:26:05.857Z,38.17
2019-03-15T08:28:34.723Z,35.05
2019-03-15T08:31:03.608Z,37.60
2019-03-15T08:33:32.511Z,42.30
2019-03-15T08:36:01.424Z,38.92
2019-03-15T08:38:30.335Z,40.48
2019-03-15T08:40:59.214Z,38.40
2019-03-15T08:43:28.072Z,34.60
2019-03-15T08:45:56.942Z,37.85
2019-03-15T08:48:25.792Z,31.00
2019-03-15T08:50:54.675Z,43.80
2019-03-15T08:53:23.571Z,41.95
2019-03-15T08:55:52.530Z,39.70
2019-03-15T08:58:22.374Z,43.60
2019-03-15T09:00:51.433Z,47.83
2019-03-15T09:03:27.811Z,41.48
2019-03-15T09:05:50.900Z,44.33
2019-03-15T09:08:19.760Z,32.42
2019-03-15T09:10:48.641Z,42.23
2019-03-15T09:13:17.505Z,41.83
2019-03-15T09:15:46.424Z,39.85
2019-03-15T09:18:15.297Z,44.30
2019-03-15T09:20:44.235Z,46.00
2019-03-15T09:23:13.090Z,48.65
2019-03-15T09:25:41.964Z,49.18
2019-03-15T09:28:10.824Z,47.98
2019-03-15T09:30:39.675Z,41.90
2019-03-15T09:33:08.588Z,42.80
2019-03-15T09:35:37.451Z,54.48
2019-03-15T09:38:06.317Z,50.43
2019-03-15T09:40:35.183Z,44.90
2019-03-15T09:43:04.054Z,45.70
2019-03-15T09:45:32.973Z,50.38
2019-03-15T09:48:01.849Z,43.42
2019-03-15T09:50:36.286Z,45.95
2019-03-15T09:53:01.314Z,40.03
2019-03-15T09:55:33.213Z,47.38
2019-03-15T09:58:00.752Z,51.58
2019-03-15T10:00:29.610Z,48.38
2019-03-15T10:02:58.475Z,39.25
2019-03-15T10:05:27.345Z,42.10
2019-03-15T10:07:56.226Z,33.67
2019-03-15T10:10:25.098Z,36.73
2019-03-15T10:13:05.323Z,30.43
2019-03-15T10:15:26.356Z,33.78
2019-03-15T10:17:55.122Z,33.90
2019-03-15T10:20:23.977Z,29.57
2019-03-15T10:23:05.299Z,24.98
2019-03-15T10:25:23.409Z,24.92
2019-03-15T10:27:52.370Z,15.68
2019-03-15T10:30:21.697Z,17.52
2019-03-15T10:32:50.572Z,16.97
2019-03-15T10:35:19.437Z,18.80
2019-03-15T10:37:48.304Z,14.93
2019-03-15T10:40:21.284Z,17.07
2019-03-15T10:42:50.147Z,15.78
2019-03-15T10:45:19.096Z,14.63
2019-03-15T10:47:47.967Z,12.88
2019-03-15T10:50:18.933Z,14.40
2019-03-15T10:52:47.863Z,14.93
2019-03-15T10:55:20.226Z,15.00
2019-03-15T10:57:47.427Z,17.37
2019-03-15T11:00:17.512Z,13.95
2019-03-15T11:02:46.413Z,13.95
2019-03-15T11:05:15.288Z,14.55
2019-03-15T11:07:44.155Z,12.53
2019-03-15T11:10:13.269Z,13.62
2019-03-15T11:12:42.128Z,16.07
2019-03-15T11:15:16.961Z,11.10
2019-03-15T11:17:45.808Z,9.93
2019-03-15T11:20:14.668Z,9.18
2019-03-15T11:22:43.526Z,10.40
2019-03-15T11:25:12.453Z,11.12
2019-03-15T11:27:41.307Z,10.30
2019-03-15T11:30:14.373Z,6.80
2019-03-15T11:32:43.219Z,8.78
2019-03-15T11:35:12.265Z,10.75
2019-03-15T11:37:41.177Z,6.15
2019-03-15T11:40:19.146Z,6.85
2019-03-15T11:42:47.279Z,10.95
2019-03-15T11:45:16.399Z,4.75
2019-03-15T11:48:01.987Z,7.40
2019-03-15T11:50:22.666Z,8.68
2019-03-15T11:52:51.488Z,7.65
2019-03-15T11:55:20.402Z,4.33
2019-03-15T11:57:49.312Z,7.95
2019-03-15T12:00:18.704Z,7.17
2019-03-15T12:02:47.568Z,4.42
2019-03-15T12:05:16.433Z,6.37
2019-03-15T12:07:45.280Z,5.45
2019-03-15T12:10:14.971Z,5.85
2019-03-15T12:12:43.831Z,9.70
2019-03-15T12:15:16.456Z,9.33
2019-03-15T12:17:45.319Z,12.10
2019-03-15T12:20:14.205Z,13.43
2019-03-15T12:22:43.139Z,22.20
2019-03-15T12:25:12.372Z,21.90
2019-03-15T12:27:41.245Z,20.10
2019-03-15T12:30:16.601Z,29.00
2019-03-15T12:32:45.533Z,28.55
2019-03-15T12:35:15.110Z,22.32
2019-03-15T12:38:03.408Z,27.70
2019-03-15T12:40:32.257Z,34.23
2019-03-15T12:43:01.152Z,26.25
2019-03-15T12:45:30.085Z,28.52
2019-03-15T12:47:58.944Z,31.77
2019-03-15T12:50:27.809Z,31.75
2019-03-15T12:52:56.688Z,30.43
2019-03-15T12:55:25.554Z,31.10
2019-03-15T12:57:54.411Z,31.80
2019-03-15T13:00:23.268Z,31.15
2019-03-15T13:02:52.132Z,33.90
2019-03-15T13:05:20.994Z,39.25
2019-03-15T13:07:49.856Z,28.57
2019-03-15T13:10:23.256Z,29.45
2019-03-15T13:12:51.564Z,38.30
2019-03-15T13:15:20.421Z,30.68
2019-03-15T13:17:49.288Z,29.82
2019-03-15T13:20:18.218Z,32.35
2019-03-15T13:22:47.072Z,28.02
2019-03-15T13:25:15.924Z,31.27
2019-03-15T13:27:44.775Z,31.15
2019-03-15T13:30:14.661Z,27.90
2019-03-15T13:32:43.542Z,26.42
2019-03-15T13:35:12.625Z,28.47
2019-03-15T13:37:43.077Z,20.62
2019-03-15T13:40:18.355Z,21.15
2019-03-15T13:42:47.216Z,22.02
2019-03-15T13:45:17.716Z,23.47
2019-03-15T13:47:46.565Z,32.50
2019-03-15T13:50:20.530Z,28.25
2019-03-15T13:52:49.097Z,29.95
2019-03-15T13:55:17.963Z,32.95
2019-03-15T13:57:46.815Z,27.15
2019-03-15T14:00:19.366Z,31.20
2019-03-15T14:02:48.228Z,38.23
2019-03-15T14:05:17.107Z,33.73
2019-03-15T14:07:45.960Z,34.25
2019-03-15T14:10:16.740Z,36.35
2019-03-15T14:12:45.667Z,32.75
2019-03-15T14:15:19.283Z,31.25
2019-03-15T14:17:47.883Z,38.73
2019-03-15T14:20:16.807Z,40.83
2019-03-15T14:22:45.773Z,35.20
2019-03-15T14:25:26.101Z,42.85
2019-03-15T14:27:55.039Z,30.82
2019-03-15T14:30:23.920Z,36.00
2019-03-15T14:32:52.862Z,36.77
2019-03-15T14:35:21.737Z,33.42
2019-03-15T14:37:50.725Z,36.05
2019-03-15T14:40:19.630Z,31.50
2019-03-15T14:42:48.720Z,34.78
2019-03-15T14:45:17.727Z,33.18
2019-03-15T14:47:46.968Z,39.08
2019-03-15T14:50:15.840Z,38.05
2019-03-15T14:52:44.720Z,41.80
2019-03-15T14:55:14.617Z,32.67
2019-03-15T14:57:51.985Z,32.42
2019-03-15T15:00:17.321Z,30.15
2019-03-15T15:02:46.276Z,36.05
2019-03-15T15:05:15.131Z,33.10
2019-03-15T15:07:44.003Z,32.83
2019-03-15T15:10:16.125Z,27.67
2019-03-15T15:12:44.988Z,25.40
2019-03-15T15:15:17.098Z,28.35
2019-03-15T15:17:45.977Z,37.20
2019-03-15T15:20:14.832Z,30.30
2019-03-15T15:22:43.688Z,30.37
2019-03-15T15:25:14.652Z,33.05
2019-03-15T15:27:43.584Z,35.33
2019-03-15T15:30:17.513Z,36.83
2019-03-15T15:32:46.144Z,29.25
2019-03-15T15:35:14.999Z,31.10
2019-03-15T15:37:43.873Z,40.12
2019-03-15T15:40:17.670Z,34.30
2019-03-15T15:42:46.249Z,31.15
2019-03-15T15:45:15.131Z,39.15
2019-03-15T15:47:44.088Z,38.35
2019-03-15T15:50:16.232Z,43.23
2019-03-15T15:52:45.107Z,42.10
2019-03-15T15:55:15.056Z,41.63
2019-03-15T15:57:43.916Z,33.23
2019-03-15T16:00:16.662Z,35.68
2019-03-15T16:02:45.532Z,36.33
2019-03-15T16:05:14.392Z,40.67
2019-03-15T16:07:43.323Z,35.15
2019-03-15T16:10:17.411Z,31.10
2019-03-15T16:12:45.233Z,33.78
2019-03-15T16:15:15.396Z,33.30
2019-03-15T16:17:45.630Z,31.77
2019-03-15T16:20:15.012Z,40.15
2019-03-15T16:22:43.880Z,35.40
2019-03-15T16:25:12.986Z,34.80
2019-03-15T16:27:41.836Z,26.65
2019-03-15T16:30:18.229Z,41.65
2019-03-15T16:32:47.153Z,34.67
2019-03-15T16:35:16.000Z,28.75
2019-03-15T16:37:44.848Z,30.08
2019-03-15T16:40:15.181Z,30.77
2019-03-15T16:42:44.049Z,38.15
2019-03-15T16:45:32.468Z,33.58
2019-03-15T16:48:06.327Z,30.57
2019-03-15T16:50:34.997Z,30.90
2019-03-15T16:53:03.907Z,34.48
2019-03-15T16:55:32.777Z,39.67
2019-03-15T16:58:01.631Z,37.73
2019-03-15T17:00:30.531Z,33.08
2019-03-15T17:02:59.385Z,34.13
2019-03-15T17:05:28.264Z,40.70
2019-03-15T17:07:57.131Z,43.20
2019-03-15T17:10:26.003Z,30.72
2019-03-15T17:12:55.890Z,19.98
2019-03-15T17:15:28.554Z,21.00
2019-03-15T17:17:57.531Z,22.07
2019-03-15T17:20:26.422Z,15.60
2019-03-15T17:22:55.353Z,23.42
2019-03-15T17:25:24.223Z,21.82
2019-03-15T17:27:53.083Z,22.10
2019-03-15T17:30:21.962Z,14.58
2019-03-15T17:32:50.824Z,20.85
2019-03-15T17:35:20.750Z,19.85
2019-03-15T17:37:49.600Z,13.55
2019-03-15T17:40:21.708Z,10.72
2019-03-15T17:42:50.575Z,17.65
2019-03-15T17:45:19.516Z,18.67
2019-03-15T17:47:48.392Z,17.40
2019-03-15T17:50:25.887Z,18.95
2019-03-15T17:52:54.750Z,13.03
2019-03-15T17:55:23.621Z,19.10
2019-03-15T17:57:52.479Z,15.50
2019-03-15T18:00:43.356Z,20.08
2019-03-15T18:03:20.904Z,18.45
2019-03-15T18:05:43.162Z,21.82
2019-03-15T18:08:12.028Z,22.07
2019-03-15T18:10:40.898Z,21.52
2019-03-15T18:13:09.761Z,22.00
2019-03-15T18:15:38.639Z,23.57
2019-03-15T18:18:07.506Z,17.30
2019-03-15T18:20:36.356Z,25.00
2019-03-15T18:23:05.545Z,20.88
2019-03-15T18:25:34.404Z,16.35
2019-03-15T18:28:03.283Z,21.50
2019-03-15T18:30:32.144Z,16.25
2019-03-15T18:33:01.018Z,25.30
2019-03-15T18:35:34.040Z,21.50
2019-03-15T18:38:00.569Z,26.73
2019-03-15T18:40:29.580Z,24.23
2019-03-15T18:42:58.474Z,15.63
2019-03-15T18:45:27.333Z,15.10
2019-03-15T18:47:56.202Z,17.48
2019-03-15T18:50:25.909Z,17.55
2019-03-15T18:52:54.801Z,16.52
2019-03-15T18:55:23.685Z,24.27
2019-03-15T18:57:54.707Z,17.00
2019-03-15T19:00:24.604Z,21.20
2019-03-15T19:02:53.516Z,25.72
2019-03-15T19:05:22.388Z,19.92
2019-03-15T19:07:51.261Z,34.38
2019-03-15T19:10:20.110Z,25.90
2019-03-15T19:12:49.005Z,23.20
2019-03-15T19:17:54.361Z,24.65
2019-03-15T19:20:23.228Z,23.38
2019-03-15T19:22:52.093Z,23.47
2019-03-15T19:25:20.963Z,11.30
2019-03-15T19:27:49.892Z,16.80
2019-03-15T19:30:20.380Z,21.12
2019-03-15T19:32:49.259Z,17.02
2019-03-15T19:35:18.105Z,26.40
2019-03-15T19:37:46.961Z,28.47
2019-03-15T19:40:16.868Z,23.73
2019-03-15T19:42:45.998Z,26.62
2019-03-15T19:45:15.603Z,30.55
2019-03-15T19:47:44.459Z,29.63
2019-03-15T19:50:16.595Z,22.60
2019-03-15T19:52:45.461Z,21.85
2019-03-15T19:55:15.035Z,24.15
2019-03-15T19:57:43.914Z,24.80
2019-03-15T20:00:22.271Z,20.10
2019-03-15T20:02:51.138Z,17.48
2019-03-15T20:05:20.023Z,20.52
2019-03-15T20:07:49.153Z,23.05
2019-03-15T20:10:18.316Z,18.30
2019-03-15T20:12:47.453Z,22.07
2019-03-15T20:15:16.875Z,18.17
2019-03-15T20:17:45.742Z,22.80
2019-03-15T20:20:16.790Z,22.32
2019-03-15T20:22:45.720Z,22.52
2019-03-15T20:25:15.530Z,24.20
2019-03-15T20:27:44.394Z,23.30
2019-03-15T20:30:21.036Z,25.37
2019-03-15T20:32:45.964Z,25.82
2019-03-15T20:35:14.819Z,26.45
2019-03-15T20:37:43.681Z,30.30
2019-03-15T20:40:14.751Z,20.27
2019-03-15T20:42:43.602Z,28.30
2019-03-15T20:45:20.391Z,29.77
2019-03-15T20:47:49.266Z,20.43
2019-03-15T20:50:18.134Z,25.17
2019-03-15T20:52:47.000Z,23.80
2019-03-15T20:55:17.660Z,17.10
2019-03-15T20:57:46.528Z,20.30
2019-03-15T21:00:34.297Z,13.90
2019-03-15T21:02:51.266Z,18.87
2019-03-15T21:05:20.137Z,21.87
2019-03-15T21:07:48.988Z,27.02
2019-03-15T21:10:18.301Z,24.57
2019-03-15T21:12:47.158Z,25.15
2019-03-15T21:15:16.294Z,24.35
2019-03-15T21:17:45.151Z,25.43
2019-03-15T21:20:22.635Z,31.57
2019-03-15T21:22:50.720Z,31.40
2019-03-15T21:25:19.604Z,22.93
2019-03-15T21:27:54.063Z,11.83
2019-03-15T21:30:22.388Z,13.10
2019-03-15T21:32:51.252Z,12.20
2019-03-15T21:35:20.105Z,8.45
2019-03-15T21:37:49.016Z,7.53
2019-03-15T21:40:22.122Z,6.42
2019-03-15T21:42:50.973Z,9.98
2019-03-15T21:45:19.827Z,10.25
2019-03-15T21:47:48.683Z,9.43
2019-03-15T21:50:21.659Z,18.30
2019-03-15T21:52:50.528Z,16.67
2019-03-15T21:55:19.400Z,21.33
2019-03-15T21:57:48.271Z,20.97
2019-03-15T22:00:17.973Z,20.37
2019-03-15T22:02:46.856Z,14.35
2019-03-15T22:05:15.719Z,16.65
2019-03-15T22:07:44.596Z,20.72
2019-03-15T22:10:15.455Z,26.80
2019-03-15T22:12:44.349Z,37.40
2019-03-15T22:15:13.553Z,35.52
2019-03-15T22:17:42.470Z,44.75
2019-03-15T22:20:15.696Z,37.20
2019-03-15T22:22:44.566Z,38.55
2019-03-15T22:25:13.443Z,39.42
2019-03-15T22:27:42.371Z,32.55
2019-03-15T22:30:12.573Z,31.90
2019-03-15T22:32:41.454Z,44.63
2019-03-15T22:35:10.313Z,37.48
2019-03-15T22:37:39.189Z,40.00
2019-03-15T22:40:10.249Z,34.95
2019-03-15T22:42:39.137Z,41.45
2019-03-15T22:45:12.279Z,49.15
2019-03-15T22:47:41.151Z,41.00
2019-03-15T22:50:11.248Z,42.62
2019-03-15T22:52:40.121Z,46.33
2019-03-15T22:55:10.039Z,47.33
2019-03-15T22:57:38.981Z,39.73
2019-03-15T23:00:15.468Z,42.58
2019-03-15T23:02:44.537Z,44.95
2019-03-15T23:05:13.467Z,44.27
2019-03-15T23:07:42.353Z,36.85
2019-03-15T23:10:11.281Z,50.60
2019-03-15T23:12:45.428Z,41.50
2019-03-15T23:15:13.991Z,43.13
2019-03-15T23:17:42.883Z,38.25
2019-03-15T23:20:13.061Z,51.13
2019-03-15T23:22:42.014Z,41.75
2019-03-15T23:25:13.072Z,37.30
2019-03-15T23:27:41.995Z,29.72
2019-03-15T23:30:15.782Z,34.60
2019-03-15T23:32:44.353Z,24.27
2019-03-15T23:35:13.208Z,31.45
2019-03-15T23:37:42.156Z,41.37
2019-03-15T23:40:12.168Z,38.67
2019-03-15T23:42:41.051Z,36.95
2019-03-15T23:45:10.893Z,33.42
2019-03-15T23:47:41.053Z,33.30
2019-03-15T23:50:12.425Z,40.73
2019-03-15T23:52:41.296Z,36.42
2019-03-15T23:55:10.158Z,40.00
2019-03-15T23:57:39.049Z,40.83
